Bingham, Maine
Current Conditions -  °F | °C
As of 12:15 AM on Saturday 25 Oct 2014 (Local Time) from KWVL Reporting Station
Broken Clouds Broken Clouds  
Wind Chill: 42°   Ceiling: 4800
Heat Index: 46°   Visibility: 10mi
Dew Point: 37°   Wind: 9mph
Humidity: 71%   Direction: 310°NW
Pressure: 29.65"   Gusts: NA
Location:  45.06°N, 69.88°W
Report Text: KWVL 250415Z 31008KT 10SM FEW027 BKN048 08/03 A2965 RMK AO1
Loading
Personal Weather Stations






























Interactive Weather Map
Tropical Storm Tracking
New forecast layout! Learn more

10-Day Weather Forecast

Advertisements
Track Severe Weather on mobile